DLH718 EDDM-RKSI
Flight info
| Callsign | DLH718 |
|---|---|
| Flight time | N/A |
| Altitude | 35000 |
| Route | KIRDI2E/08R KIRDI DCT BUWOQ DCT OBFEZ/N0489F350 DCT STEIN DCT TEGRI/N0493F370 DCT UDROS UN743 GAKSU UT310 SIN UN644 ROLIN DCT TAGAR DCT BT DCT BARAD M747 SUBUT T916 BALUN/K0898F370 T916 ARNUS/K0896F390 T916 PIGAL M610 RULAD/K0904S1190 A343 POSOT B215 FKG W188 BATUS/K0907S1250 W188 LIKMI W270 DKO W69 HUR B339 LADIX W34 VAPGU W100 ORAVA W201 UNSEK A326 DONVO G597 AGAVO/N0481F410 Y644 REBIT REBIT1Y |
| Aircraft | A359/H-SDE2E3GHIJ3J4J5LM1ORWXY/LB1D1 |
Departure
| Time | 2026-05-01 13:07 |
|---|---|
| Airport | Munich Airport (EDDM) |
Arrival
| Time | N/A |
|---|---|
| Airport | Incheon International Airport (RKSI) |
| Time | Latitude | Longitude | Altitude | Speed | Heading |
|---|---|---|---|---|---|
| 2026-05-01 12:36 | 48.35657 | 11.79699 | 1492 ft | 0 kts | 82° |
| 2026-05-01 12:49 | 48.35654 | 11.79663 | 1484 ft | 4 kts | 83° |
| 2026-05-01 12:49 | 48.35651 | 11.79623 | 1476 ft | 4 kts | 85° |
| 2026-05-01 12:50 | 48.35649 | 11.79591 | 1476 ft | 2 kts | 106° |
| 2026-05-01 12:50 | 48.35655 | 11.79576 | 1476 ft | 2 kts | 153° |
| 2026-05-01 12:50 | 48.35665 | 11.79570 | 1476 ft | 2 kts | 166° |
| 2026-05-01 12:50 | 48.35676 | 11.79567 | 1478 ft | 2 kts | 171° |
| 2026-05-01 12:51 | 48.35682 | 11.79565 | 1479 ft | 0 kts | 172° |
| 2026-05-01 12:54 | 48.35658 | 11.79571 | 1478 ft | 14 kts | 170° |
| 2026-05-01 12:54 | 48.35542 | 11.79583 | 1477 ft | 17 kts | 177° |
| 2026-05-01 12:55 | 48.35308 | 11.79612 | 1489 ft | 17 kts | 172° |
| 2026-05-01 12:55 | 48.35193 | 11.79635 | 1478 ft | 17 kts | 173° |
| 2026-05-01 12:55 | 48.35075 | 11.79657 | 1483 ft | 17 kts | 174° |
| 2026-05-01 12:56 | 48.34990 | 11.79613 | 1480 ft | 10 kts | 236° |
| 2026-05-01 12:56 | 48.34940 | 11.79550 | 1480 ft | 9 kts | 192° |
| 2026-05-01 12:56 | 48.34912 | 11.79549 | 1481 ft | 0 kts | 180° |
| 2026-05-01 12:57 | 48.34877 | 11.79549 | 1484 ft | 4 kts | 180° |
| 2026-05-01 12:57 | 48.34842 | 11.79549 | 1480 ft | 5 kts | 180° |
| 2026-05-01 12:58 | 48.34804 | 11.79538 | 1481 ft | 5 kts | 209° |
| 2026-05-01 12:58 | 48.34789 | 11.79495 | 1481 ft | 5 kts | 261° |
| 2026-05-01 12:58 | 48.34785 | 11.79442 | 1481 ft | 6 kts | 263° |
| 2026-05-01 12:59 | 48.34769 | 11.79249 | 1480 ft | 10 kts | 263° |
| 2026-05-01 12:59 | 48.34760 | 11.79138 | 1491 ft | 11 kts | 263° |
| 2026-05-01 12:59 | 48.34739 | 11.78887 | 1485 ft | 13 kts | 263° |
| 2026-05-01 13:00 | 48.34717 | 11.78603 | 1487 ft | 15 kts | 263° |
| 2026-05-01 13:00 | 48.34705 | 11.78448 | 1488 ft | 15 kts | 264° |
| 2026-05-01 13:01 | 48.34681 | 11.78115 | 1478 ft | 17 kts | 263° |
| 2026-05-01 13:01 | 48.34668 | 11.77941 | 1491 ft | 17 kts | 263° |
| 2026-05-01 13:01 | 48.34640 | 11.77570 | 1488 ft | 19 kts | 263° |
| 2026-05-01 13:02 | 48.34626 | 11.77374 | 1481 ft | 19 kts | 263° |
| 2026-05-01 13:07 | 48.34691 | 11.83549 | 3611 ft | 184 kts | 83° |
| 2026-05-01 13:07 | 48.34862 | 11.85548 | 3936 ft | 203 kts | 83° |
| 2026-05-01 13:07 | 48.35032 | 11.87741 | 4360 ft | 219 kts | 85° |
| 2026-05-01 13:08 | 48.35206 | 11.90033 | 5010 ft | 227 kts | 85° |
| 2026-05-01 13:08 | 48.35335 | 11.92411 | 5669 ft | 230 kts | 91° |
| 2026-05-01 13:08 | 48.35044 | 11.94795 | 6198 ft | 240 kts | 110° |
| 2026-05-01 13:08 | 48.34371 | 11.97172 | 6687 ft | 253 kts | 114° |
| 2026-05-01 13:09 | 48.33614 | 11.99607 | 7145 ft | 260 kts | 114° |
| 2026-05-01 13:09 | 48.32881 | 12.02002 | 7467 ft | 262 kts | 113° |
| 2026-05-01 13:09 | 48.32123 | 12.04530 | 8077 ft | 266 kts | 113° |
| 2026-05-01 13:09 | 48.31382 | 12.07011 | 8843 ft | 267 kts | 112° |
| 2026-05-01 13:10 | 48.30624 | 12.09575 | 9540 ft | 271 kts | 112° |
| 2026-05-01 13:10 | 48.29928 | 12.11929 | 10178 ft | 274 kts | 112° |
| 2026-05-01 13:10 | 48.29154 | 12.14568 | 10839 ft | 278 kts | 111° |
| 2026-05-01 13:10 | 48.28367 | 12.17233 | 11502 ft | 281 kts | 111° |
| 2026-05-01 13:11 | 48.27564 | 12.19934 | 12160 ft | 285 kts | 111° |
| 2026-05-01 13:11 | 48.26756 | 12.22667 | 12814 ft | 288 kts | 111° |
| 2026-05-01 13:11 | 48.25937 | 12.25433 | 13466 ft | 291 kts | 111° |
| 2026-05-01 13:11 | 48.25109 | 12.28226 | 14103 ft | 295 kts | 111° |
| 2026-05-01 13:12 | 48.24270 | 12.31049 | 14690 ft | 297 kts | 110° |
| 2026-05-01 13:12 | 48.23578 | 12.33956 | 15253 ft | 296 kts | 98° |
| 2026-05-01 13:12 | 48.23373 | 12.37025 | 15597 ft | 305 kts | 89° |
| 2026-05-01 13:12 | 48.23350 | 12.40278 | 15845 ft | 319 kts | 88° |
| 2026-05-01 13:13 | 48.23333 | 12.43674 | 16093 ft | 333 kts | 88° |
| 2026-05-01 13:13 | 48.23303 | 12.47203 | 16327 ft | 346 kts | 89° |
| 2026-05-01 13:13 | 48.23263 | 12.50883 | 16576 ft | 359 kts | 89° |
| 2026-05-01 13:13 | 48.23216 | 12.54689 | 16814 ft | 371 kts | 89° |
| 2026-05-01 13:14 | 48.23018 | 12.58616 | 17048 ft | 384 kts | 95° |
| 2026-05-01 13:14 | 48.22654 | 12.62579 | 17440 ft | 392 kts | 96° |
| 2026-05-01 13:14 | 48.22261 | 12.66635 | 17976 ft | 395 kts | 96° |
| 2026-05-01 13:14 | 48.21867 | 12.70729 | 18522 ft | 398 kts | 96° |
| 2026-05-01 13:15 | 48.21473 | 12.74850 | 19029 ft | 401 kts | 96° |
| 2026-05-01 13:15 | 48.21076 | 12.79006 | 19509 ft | 404 kts | 95° |
| 2026-05-01 13:15 | 48.20807 | 12.83128 | 19993 ft | 406 kts | 90° |
| 2026-05-01 13:15 | 48.20746 | 12.87364 | 20496 ft | 408 kts | 88° |
| 2026-05-01 13:16 | 48.20792 | 12.91632 | 21015 ft | 410 kts | 86° |
| 2026-05-01 13:16 | 48.20885 | 12.95915 | 21548 ft | 413 kts | 85° |
| 2026-05-01 13:16 | 48.20985 | 13.00172 | 22044 ft | 416 kts | 85° |
| 2026-05-01 13:17 | 48.21231 | 13.13323 | 23573 ft | 425 kts | 86° |
| 2026-05-01 13:17 | 48.21292 | 13.17772 | 24058 ft | 428 kts | 86° |
| 2026-05-01 13:18 | 48.21402 | 13.26755 | 24883 ft | 434 kts | 86° |
| 2026-05-01 13:18 | 48.21453 | 13.31289 | 25294 ft | 437 kts | 86° |
| 2026-05-01 13:18 | 48.21503 | 13.35803 | 25717 ft | 439 kts | 86° |
| 2026-05-01 13:18 | 48.21553 | 13.40397 | 26117 ft | 442 kts | 86° |
| 2026-05-01 13:19 | 48.21602 | 13.45023 | 26532 ft | 445 kts | 86° |
| 2026-05-01 13:19 | 48.21650 | 13.49679 | 26936 ft | 448 kts | 86° |
| 2026-05-01 13:19 | 48.21740 | 13.59080 | 27721 ft | 453 kts | 85° |
| 2026-05-01 13:20 | 48.21783 | 13.63820 | 28124 ft | 456 kts | 85° |
| 2026-05-01 13:20 | 48.21822 | 13.68420 | 28488 ft | 459 kts | 85° |
| 2026-05-01 13:20 | 48.21861 | 13.73151 | 28861 ft | 461 kts | 85° |
| 2026-05-01 13:21 | 48.21934 | 13.82817 | 29558 ft | 466 kts | 85° |
| 2026-05-01 13:21 | 48.21967 | 13.87693 | 29900 ft | 469 kts | 85° |
| 2026-05-01 13:21 | 48.21977 | 13.92590 | 30237 ft | 472 kts | 88° |
| 2026-05-01 13:21 | 48.21675 | 13.97502 | 30678 ft | 475 kts | 95° |
| 2026-05-01 13:22 | 48.20905 | 14.02329 | 31087 ft | 479 kts | 103° |
| 2026-05-01 13:22 | 48.19729 | 14.07007 | 31496 ft | 480 kts | 107° |
| 2026-05-01 13:22 | 48.18452 | 14.11547 | 31885 ft | 479 kts | 109° |
| 2026-05-01 13:22 | 48.17109 | 14.16113 | 32267 ft | 478 kts | 109° |
| 2026-05-01 13:23 | 48.15751 | 14.20650 | 32644 ft | 477 kts | 109° |
| 2026-05-01 13:23 | 48.14396 | 14.25169 | 33018 ft | 475 kts | 109° |
| 2026-05-01 13:23 | 48.13048 | 14.29683 | 33382 ft | 474 kts | 109° |
| 2026-05-01 13:23 | 48.11709 | 14.34186 | 33736 ft | 473 kts | 109° |
| 2026-05-01 13:24 | 48.10380 | 14.38675 | 34082 ft | 471 kts | 109° |
| 2026-05-01 13:24 | 48.09055 | 14.43153 | 34417 ft | 470 kts | 109° |
| 2026-05-01 13:24 | 48.07731 | 14.47624 | 34682 ft | 469 kts | 109° |
| 2026-05-01 13:25 | 48.05103 | 14.56479 | 35116 ft | 470 kts | 109° |
| 2026-05-01 13:25 | 48.03775 | 14.60940 | 35348 ft | 469 kts | 109° |
| 2026-05-01 13:25 | 48.02460 | 14.65349 | 35574 ft | 469 kts | 109° |
| 2026-05-01 13:25 | 48.01148 | 14.69738 | 35793 ft | 469 kts | 109° |
| 2026-05-01 13:26 | 47.99816 | 14.74186 | 36006 ft | 469 kts | 109° |
| 2026-05-01 13:26 | 47.98484 | 14.78627 | 36188 ft | 469 kts | 109° |
| 2026-05-01 13:26 | 47.97151 | 14.83062 | 36391 ft | 468 kts | 109° |
| 2026-05-01 13:26 | 47.95835 | 14.87440 | 36560 ft | 468 kts | 109° |
| 2026-05-01 13:27 | 47.94499 | 14.91872 | 36770 ft | 468 kts | 109° |
| 2026-05-01 13:27 | 47.93162 | 14.96294 | 36957 ft | 468 kts | 109° |
| 2026-05-01 13:27 | 47.90482 | 15.05143 | 37290 ft | 468 kts | 109° |
| 2026-05-01 13:28 | 47.86420 | 15.18498 | 37368 ft | 475 kts | 109° |
| 2026-05-01 13:29 | 47.80971 | 15.36281 | 37372 ft | 474 kts | 109° |
| 2026-05-01 13:31 | 47.72866 | 15.63036 | 37362 ft | 473 kts | 108° |
| 2026-05-01 13:32 | 47.66081 | 15.85237 | 37362 ft | 474 kts | 109° |
| 2026-05-01 13:33 | 47.59220 | 16.07453 | 37369 ft | 474 kts | 109° |
| 2026-05-01 13:34 | 47.53723 | 16.25117 | 37368 ft | 474 kts | 109° |
| 2026-05-01 13:35 | 47.49563 | 16.38400 | 37361 ft | 474 kts | 109° |
| 2026-05-01 13:36 | 47.45445 | 16.51481 | 37363 ft | 475 kts | 109° |
| 2026-05-01 13:36 | 47.41609 | 16.64890 | 37359 ft | 470 kts | 103° |
| 2026-05-01 13:37 | 47.39474 | 16.73880 | 37358 ft | 469 kts | 103° |
| 2026-05-01 13:37 | 47.37360 | 16.82915 | 37360 ft | 469 kts | 103° |
| 2026-05-01 13:38 | 47.34142 | 16.96550 | 37357 ft | 469 kts | 103° |
| 2026-05-01 13:39 | 47.31981 | 17.05629 | 37353 ft | 469 kts | 103° |
| 2026-05-01 13:39 | 47.29811 | 17.14702 | 37353 ft | 470 kts | 103° |
| 2026-05-01 13:40 | 47.27648 | 17.23711 | 37352 ft | 470 kts | 103° |
| 2026-05-01 13:40 | 47.25464 | 17.32770 | 37352 ft | 470 kts | 103° |
| 2026-05-01 13:41 | 47.23273 | 17.41822 | 37350 ft | 470 kts | 103° |
| 2026-05-01 13:41 | 47.21073 | 17.50874 | 37350 ft | 470 kts | 103° |
| 2026-05-01 13:42 | 47.18883 | 17.59851 | 37351 ft | 470 kts | 103° |
| 2026-05-01 13:42 | 47.16684 | 17.68825 | 37347 ft | 470 kts | 103° |
| 2026-05-01 13:43 | 47.14484 | 17.77767 | 37347 ft | 470 kts | 103° |
| 2026-05-01 13:43 | 47.12270 | 17.86729 | 37335 ft | 470 kts | 103° |
| 2026-05-01 13:44 | 47.10034 | 17.95746 | 37352 ft | 470 kts | 103° |
| 2026-05-01 13:44 | 47.07791 | 18.04756 | 37345 ft | 470 kts | 104° |
| 2026-05-01 13:45 | 47.05541 | 18.13756 | 37343 ft | 470 kts | 104° |
| 2026-05-01 13:45 | 47.03283 | 18.22753 | 37342 ft | 470 kts | 104° |
| 2026-05-01 13:46 | 47.01033 | 18.31683 | 37341 ft | 470 kts | 104° |
| 2026-05-01 13:46 | 46.98764 | 18.40654 | 37340 ft | 470 kts | 104° |
| 2026-05-01 13:47 | 46.96489 | 18.49612 | 37341 ft | 469 kts | 104° |
| 2026-05-01 13:47 | 46.94222 | 18.58505 | 37336 ft | 469 kts | 104° |
| 2026-05-01 13:48 | 46.91935 | 18.67442 | 37344 ft | 469 kts | 104° |
| 2026-05-01 13:48 | 46.89641 | 18.76369 | 37340 ft | 469 kts | 104° |
| 2026-05-01 13:49 | 46.87341 | 18.85288 | 37337 ft | 469 kts | 104° |
| 2026-05-01 13:49 | 46.85051 | 18.94134 | 37333 ft | 468 kts | 104° |
| 2026-05-01 13:50 | 46.82739 | 19.03028 | 37339 ft | 468 kts | 104° |
| 2026-05-01 13:50 | 46.80419 | 19.11918 | 37325 ft | 469 kts | 104° |
| 2026-05-01 13:51 | 46.78092 | 19.20805 | 37332 ft | 469 kts | 104° |
| 2026-05-01 13:51 | 46.75769 | 19.29640 | 37329 ft | 469 kts | 104° |
| 2026-05-01 13:52 | 46.73425 | 19.38520 | 37329 ft | 470 kts | 104° |
| 2026-05-01 13:52 | 46.71072 | 19.47405 | 37330 ft | 470 kts | 104° |
| 2026-05-01 13:53 | 46.68711 | 19.56286 | 37327 ft | 470 kts | 104° |
| 2026-05-01 13:53 | 46.65175 | 19.69526 | 37327 ft | 470 kts | 104° |
| 2026-05-01 13:54 | 46.62796 | 19.78384 | 37328 ft | 470 kts | 105° |
| 2026-05-01 13:54 | 46.60409 | 19.87244 | 37327 ft | 470 kts | 105° |
| 2026-05-01 13:55 | 46.58015 | 19.96093 | 37326 ft | 470 kts | 105° |
| 2026-05-01 13:55 | 46.55631 | 20.04874 | 37325 ft | 470 kts | 105° |
| 2026-05-01 13:56 | 46.53222 | 20.13716 | 37323 ft | 471 kts | 105° |
| 2026-05-01 13:56 | 46.50807 | 20.22544 | 37319 ft | 471 kts | 105° |
| 2026-05-01 13:57 | 46.48792 | 20.29888 | 37316 ft | 471 kts | 105° |
| 2026-05-01 13:57 | 46.45965 | 20.40154 | 37313 ft | 472 kts | 105° |
| 2026-05-01 13:58 | 46.43523 | 20.48988 | 37313 ft | 472 kts | 105° |
| 2026-05-01 13:58 | 46.41070 | 20.57824 | 37311 ft | 473 kts | 105° |
| 2026-05-01 13:59 | 46.38610 | 20.66655 | 37304 ft | 473 kts | 106° |
| 2026-05-01 13:59 | 46.36153 | 20.75443 | 37303 ft | 474 kts | 106° |
| 2026-05-01 14:00 | 46.33671 | 20.84292 | 37305 ft | 475 kts | 106° |
| 2026-05-01 14:00 | 46.31177 | 20.93147 | 37298 ft | 476 kts | 106° |
| 2026-05-01 14:01 | 46.28672 | 21.02012 | 37294 ft | 476 kts | 107° |
| 2026-05-01 14:01 | 46.26176 | 21.10812 | 37295 ft | 477 kts | 107° |
| 2026-05-01 14:02 | 46.23533 | 21.19625 | 37292 ft | 479 kts | 109° |
| 2026-05-01 14:02 | 46.20754 | 21.28382 | 37295 ft | 480 kts | 109° |
| 2026-05-01 14:03 | 46.17980 | 21.37145 | 37302 ft | 480 kts | 109° |
| 2026-05-01 14:03 | 46.15238 | 21.45873 | 37292 ft | 481 kts | 109° |
| 2026-05-01 14:04 | 46.12474 | 21.54673 | 37290 ft | 482 kts | 109° |
| 2026-05-01 14:04 | 46.10167 | 21.61998 | 37285 ft | 483 kts | 109° |
| 2026-05-01 14:05 | 46.06905 | 21.72310 | 37279 ft | 484 kts | 109° |
| 2026-05-01 14:05 | 46.04121 | 21.81074 | 37274 ft | 485 kts | 110° |
| 2026-05-01 14:06 | 46.01308 | 21.89903 | 37269 ft | 486 kts | 110° |
| 2026-05-01 14:06 | 45.98485 | 21.98734 | 37270 ft | 486 kts | 110° |
| 2026-05-01 14:07 | 45.95651 | 22.07570 | 37268 ft | 487 kts | 110° |
| 2026-05-01 14:08 | 45.91404 | 22.20752 | 37266 ft | 488 kts | 110° |
| 2026-05-01 14:08 | 45.88543 | 22.29594 | 37258 ft | 489 kts | 111° |
| 2026-05-01 14:09 | 45.85669 | 22.38446 | 37263 ft | 489 kts | 111° |
| 2026-05-01 14:09 | 45.82788 | 22.47293 | 37260 ft | 490 kts | 111° |
| 2026-05-01 14:10 | 45.79897 | 22.56141 | 37266 ft | 490 kts | 111° |
| 2026-05-01 14:10 | 45.77013 | 22.64932 | 37266 ft | 491 kts | 111° |
| 2026-05-01 14:11 | 45.74097 | 22.73789 | 37255 ft | 492 kts | 111° |
| 2026-05-01 14:11 | 45.69706 | 22.87075 | 37270 ft | 493 kts | 112° |
| 2026-05-01 14:12 | 45.66786 | 22.95871 | 37256 ft | 493 kts | 112° |
| 2026-05-01 14:12 | 45.63838 | 23.04724 | 37258 ft | 494 kts | 112° |
| 2026-05-01 14:13 | 45.61378 | 23.12090 | 37259 ft | 494 kts | 112° |
| 2026-05-01 14:13 | 45.57909 | 23.22443 | 37254 ft | 495 kts | 112° |
| 2026-05-01 14:14 | 45.54952 | 23.31233 | 37252 ft | 495 kts | 112° |
| 2026-05-01 14:14 | 45.51962 | 23.40091 | 37251 ft | 496 kts | 112° |
| 2026-05-01 14:15 | 45.48984 | 23.48883 | 37246 ft | 496 kts | 113° |
| 2026-05-01 14:15 | 45.45974 | 23.57741 | 37247 ft | 497 kts | 113° |
| 2026-05-01 14:16 | 45.42983 | 23.66517 | 37250 ft | 497 kts | 113° |
| 2026-05-01 14:16 | 45.39954 | 23.75374 | 37251 ft | 498 kts | 113° |
| 2026-05-01 14:17 | 45.36937 | 23.84165 | 37244 ft | 498 kts | 114° |
| 2026-05-01 14:17 | 45.33893 | 23.93008 | 37252 ft | 498 kts | 114° |
| 2026-05-01 14:18 | 45.30858 | 24.01793 | 37256 ft | 499 kts | 114° |
| 2026-05-01 14:18 | 45.28312 | 24.09139 | 37262 ft | 499 kts | 114° |
| 2026-05-01 14:19 | 45.24723 | 24.19467 | 37252 ft | 499 kts | 114° |
| 2026-05-01 14:19 | 45.21639 | 24.28305 | 37253 ft | 500 kts | 114° |
| 2026-05-01 14:20 | 45.17018 | 24.41491 | 37255 ft | 500 kts | 114° |
| 2026-05-01 14:21 | 45.13916 | 24.50310 | 37258 ft | 501 kts | 114° |
| 2026-05-01 14:21 | 45.10800 | 24.59141 | 37263 ft | 501 kts | 115° |
| 2026-05-01 14:22 | 45.06130 | 24.72316 | 37259 ft | 502 kts | 115° |
| 2026-05-01 14:22 | 45.02993 | 24.81134 | 37265 ft | 502 kts | 115° |
| 2026-05-01 14:23 | 44.99845 | 24.89958 | 37265 ft | 503 kts | 115° |
| 2026-05-01 14:23 | 44.96685 | 24.98781 | 37268 ft | 504 kts | 115° |
| 2026-05-01 14:24 | 44.93535 | 25.07547 | 37270 ft | 504 kts | 115° |
| 2026-05-01 14:24 | 44.90357 | 25.16362 | 37273 ft | 504 kts | 115° |
| 2026-05-01 14:25 | 44.87170 | 25.25175 | 37274 ft | 504 kts | 116° |
| 2026-05-01 14:25 | 44.83975 | 25.33984 | 37277 ft | 505 kts | 116° |
| 2026-05-01 14:26 | 44.79283 | 25.46865 | 37280 ft | 505 kts | 116° |
| 2026-05-01 14:27 | 44.76088 | 25.55598 | 37280 ft | 505 kts | 116° |
| 2026-05-01 14:27 | 44.72867 | 25.64377 | 37286 ft | 505 kts | 116° |
| 2026-05-01 14:28 | 44.68019 | 25.77541 | 37290 ft | 506 kts | 116° |
| 2026-05-01 14:28 | 44.64848 | 25.86116 | 37292 ft | 506 kts | 116° |
| 2026-05-01 14:29 | 44.61594 | 25.94888 | 37292 ft | 507 kts | 117° |
| 2026-05-01 14:30 | 44.55078 | 26.12370 | 37294 ft | 507 kts | 117° |
| 2026-05-01 14:31 | 44.50156 | 26.25501 | 37293 ft | 508 kts | 117° |
| 2026-05-01 14:31 | 44.46866 | 26.34245 | 37292 ft | 508 kts | 117° |
| 2026-05-01 14:32 | 44.43564 | 26.42993 | 37291 ft | 508 kts | 117° |
| 2026-05-01 14:32 | 44.40278 | 26.51673 | 37288 ft | 508 kts | 117° |
| 2026-05-01 14:33 | 44.36964 | 26.60400 | 37286 ft | 508 kts | 117° |
| 2026-05-01 14:33 | 44.33641 | 26.69119 | 37286 ft | 509 kts | 118° |
| 2026-05-01 14:34 | 44.30338 | 26.77761 | 37283 ft | 509 kts | 118° |
| 2026-05-01 14:34 | 44.27022 | 26.86410 | 37281 ft | 509 kts | 118° |
| 2026-05-01 14:35 | 44.23675 | 26.95112 | 37284 ft | 509 kts | 118° |
| 2026-05-01 14:35 | 44.20319 | 27.03811 | 37278 ft | 510 kts | 118° |
| 2026-05-01 14:36 | 44.16955 | 27.12505 | 37279 ft | 510 kts | 118° |
| 2026-05-01 14:36 | 44.13640 | 27.21043 | 37273 ft | 510 kts | 118° |
| 2026-05-01 14:37 | 44.10279 | 27.29673 | 37278 ft | 511 kts | 119° |
| 2026-05-01 14:37 | 44.06885 | 27.38362 | 37273 ft | 511 kts | 119° |
| 2026-05-01 14:38 | 44.03481 | 27.47051 | 37271 ft | 512 kts | 119° |
| 2026-05-01 14:38 | 44.00095 | 27.55668 | 37272 ft | 512 kts | 119° |
| 2026-05-01 14:39 | 43.96677 | 27.64341 | 37268 ft | 512 kts | 119° |
| 2026-05-01 14:39 | 43.93248 | 27.73011 | 37269 ft | 513 kts | 119° |
| 2026-05-01 14:40 | 43.89812 | 27.81673 | 37266 ft | 513 kts | 120° |
| 2026-05-01 14:40 | 43.86394 | 27.90268 | 37263 ft | 512 kts | 120° |
| 2026-05-01 14:41 | 43.82946 | 27.98908 | 37260 ft | 513 kts | 120° |
| 2026-05-01 14:41 | 43.79492 | 28.07539 | 37256 ft | 513 kts | 120° |
| 2026-05-01 14:42 | 43.76029 | 28.16164 | 37256 ft | 513 kts | 120° |
| 2026-05-01 14:42 | 43.72557 | 28.24784 | 37256 ft | 513 kts | 120° |
| 2026-05-01 14:43 | 43.69107 | 28.33327 | 37255 ft | 513 kts | 120° |
| 2026-05-01 14:43 | 43.65622 | 28.41929 | 37251 ft | 513 kts | 120° |
| 2026-05-01 14:44 | 43.62128 | 28.50529 | 37253 ft | 514 kts | 120° |
| 2026-05-01 14:44 | 43.56872 | 28.63414 | 37251 ft | 514 kts | 121° |
| 2026-05-01 14:45 | 43.51620 | 28.76234 | 37252 ft | 514 kts | 121° |
| 2026-05-01 14:46 | 43.48095 | 28.84806 | 37251 ft | 514 kts | 121° |
| 2026-05-01 14:46 | 43.42816 | 28.97595 | 37248 ft | 514 kts | 121° |
| 2026-05-01 14:47 | 43.39276 | 29.06142 | 37251 ft | 515 kts | 121° |
| 2026-05-01 14:48 | 43.33948 | 29.18954 | 37244 ft | 515 kts | 121° |
| 2026-05-01 14:48 | 43.28628 | 29.31691 | 37245 ft | 515 kts | 122° |
| 2026-05-01 14:49 | 43.21477 | 29.48724 | 37237 ft | 516 kts | 122° |
| 2026-05-01 14:50 | 43.14289 | 29.65745 | 37235 ft | 516 kts | 122° |
| 2026-05-01 14:51 | 43.08905 | 29.78432 | 37232 ft | 516 kts | 122° |
| 2026-05-01 14:52 | 43.03477 | 29.91163 | 37225 ft | 517 kts | 123° |
| 2026-05-01 14:53 | 42.98032 | 30.03881 | 37224 ft | 517 kts | 123° |
| 2026-05-01 14:53 | 42.94421 | 30.12285 | 37222 ft | 517 kts | 123° |
| 2026-05-01 14:54 | 42.90778 | 30.20738 | 37216 ft | 517 kts | 123° |
| 2026-05-01 14:54 | 42.87130 | 30.29177 | 37217 ft | 517 kts | 123° |
| 2026-05-01 14:55 | 42.83474 | 30.37612 | 37212 ft | 517 kts | 123° |
| 2026-05-01 14:55 | 42.79837 | 30.45977 | 37208 ft | 517 kts | 124° |
| 2026-05-01 14:56 | 42.76168 | 30.54395 | 37205 ft | 517 kts | 124° |
| 2026-05-01 14:56 | 42.73206 | 30.63334 | 37210 ft | 522 kts | 109° |
| 2026-05-01 14:57 | 42.71228 | 30.72859 | 37201 ft | 524 kts | 107° |
| 2026-05-01 14:57 | 42.68484 | 30.87183 | 37198 ft | 524 kts | 107° |
| 2026-05-01 14:58 | 42.66618 | 30.96763 | 37198 ft | 525 kts | 108° |
| 2026-05-01 14:58 | 42.64724 | 31.06338 | 37193 ft | 525 kts | 108° |
| 2026-05-01 14:59 | 42.62818 | 31.15900 | 37197 ft | 525 kts | 108° |
| 2026-05-01 14:59 | 42.60915 | 31.25402 | 37196 ft | 525 kts | 108° |
| 2026-05-01 15:00 | 42.58029 | 31.39742 | 37186 ft | 525 kts | 108° |
| 2026-05-01 15:01 | 42.56096 | 31.49293 | 37180 ft | 525 kts | 109° |
| 2026-05-01 15:01 | 42.54156 | 31.58834 | 37183 ft | 525 kts | 109° |
| 2026-05-01 15:02 | 42.52218 | 31.68317 | 37173 ft | 525 kts | 109° |
| 2026-05-01 15:02 | 42.50262 | 31.77843 | 37179 ft | 525 kts | 109° |
| 2026-05-01 15:03 | 42.48295 | 31.87378 | 37179 ft | 525 kts | 109° |
| 2026-05-01 15:03 | 42.46322 | 31.96901 | 37173 ft | 525 kts | 109° |
| 2026-05-01 15:04 | 42.44356 | 32.06345 | 37169 ft | 525 kts | 109° |
| 2026-05-01 15:04 | 42.42367 | 32.15855 | 37164 ft | 525 kts | 110° |
| 2026-05-01 15:05 | 42.40372 | 32.25353 | 37163 ft | 525 kts | 110° |
| 2026-05-01 15:05 | 42.38368 | 32.34848 | 37165 ft | 525 kts | 110° |
| 2026-05-01 15:06 | 42.36370 | 32.44273 | 37159 ft | 525 kts | 110° |
| 2026-05-01 15:06 | 42.34352 | 32.53754 | 37158 ft | 524 kts | 110° |
| 2026-05-01 15:07 | 42.32795 | 32.63414 | 37155 ft | 528 kts | 103° |
| 2026-05-01 15:07 | 42.31840 | 32.71575 | 37160 ft | 529 kts | 102° |
| 2026-05-01 15:08 | 42.30569 | 32.83001 | 37160 ft | 529 kts | 102° |
| 2026-05-01 15:08 | 42.29462 | 32.92814 | 37153 ft | 528 kts | 103° |
| 2026-05-01 15:09 | 42.28335 | 33.02620 | 37146 ft | 528 kts | 103° |
| 2026-05-01 15:09 | 42.27389 | 33.10757 | 37147 ft | 528 kts | 103° |
| 2026-05-01 15:10 | 42.26057 | 33.22125 | 37151 ft | 527 kts | 103° |
| 2026-05-01 15:10 | 42.24325 | 33.36768 | 37150 ft | 526 kts | 103° |
| 2026-05-01 15:11 | 42.22776 | 33.49738 | 37147 ft | 526 kts | 104° |
| 2026-05-01 15:12 | 42.21411 | 33.61052 | 37147 ft | 525 kts | 104° |
| 2026-05-01 15:12 | 42.19828 | 33.74059 | 37147 ft | 525 kts | 104° |
| 2026-05-01 15:14 | 42.16839 | 33.98266 | 37141 ft | 525 kts | 104° |
| 2026-05-01 15:14 | 42.15020 | 34.12812 | 37143 ft | 525 kts | 104° |
| 2026-05-01 15:15 | 42.12573 | 34.32133 | 37139 ft | 525 kts | 104° |
| 2026-05-01 15:16 | 42.10058 | 34.51497 | 37132 ft | 524 kts | 105° |
| 2026-05-01 15:18 | 42.06676 | 34.75538 | 37127 ft | 524 kts | 105° |
| 2026-05-01 15:19 | 42.04010 | 34.94732 | 37126 ft | 524 kts | 105° |
| 2026-05-01 15:19 | 42.02260 | 35.09238 | 37126 ft | 527 kts | 99° |
| 2026-05-01 15:20 | 42.01417 | 35.23970 | 37114 ft | 527 kts | 98° |
| 2026-05-01 15:21 | 42.00912 | 35.33731 | 37108 ft | 527 kts | 98° |
| 2026-05-01 15:21 | 42.00388 | 35.43546 | 37107 ft | 526 kts | 98° |
| 2026-05-01 15:22 | 41.99572 | 35.58257 | 37100 ft | 526 kts | 98° |
| 2026-05-01 15:22 | 41.99016 | 35.68060 | 37099 ft | 526 kts | 98° |
| 2026-05-01 15:23 | 41.98456 | 35.77791 | 37094 ft | 526 kts | 99° |
| 2026-05-01 15:23 | 41.97884 | 35.87584 | 37093 ft | 525 kts | 99° |
| 2026-05-01 15:24 | 41.97305 | 35.97370 | 37101 ft | 525 kts | 99° |
| 2026-05-01 15:24 | 41.96716 | 36.07151 | 37092 ft | 525 kts | 99° |
| 2026-05-01 15:25 | 41.96122 | 36.16858 | 37078 ft | 525 kts | 99° |
| 2026-05-01 15:25 | 41.95518 | 36.26619 | 37090 ft | 524 kts | 99° |
| 2026-05-01 15:26 | 41.94906 | 36.36382 | 37080 ft | 524 kts | 99° |
| 2026-05-01 15:26 | 41.94299 | 36.45928 | 37078 ft | 524 kts | 99° |
| 2026-05-01 15:27 | 41.93665 | 36.55767 | 37077 ft | 523 kts | 99° |
| 2026-05-01 15:28 | 41.92708 | 36.70366 | 37071 ft | 523 kts | 99° |
| 2026-05-01 15:28 | 41.92060 | 36.80091 | 37066 ft | 523 kts | 99° |
| 2026-05-01 15:29 | 41.91079 | 36.94590 | 37067 ft | 522 kts | 99° |
| 2026-05-01 15:30 | 41.90028 | 37.14023 | 37059 ft | 524 kts | 94° |
| 2026-05-01 15:31 | 41.89826 | 37.43250 | 37053 ft | 522 kts | 95° |
| 2026-05-01 15:32 | 41.89476 | 37.62731 | 37047 ft | 522 kts | 95° |
| 2026-05-01 15:34 | 41.88902 | 37.91851 | 37037 ft | 522 kts | 95° |